createdAt,value
2022-09-20T00:01:15.576Z,8.74
2022-09-20T00:03:46.923Z,8.58
2022-09-20T00:06:16.486Z,8.63
2022-09-20T00:08:44.068Z,8.49
2022-09-20T00:11:15.451Z,8.60
2022-09-20T00:13:43.808Z,8.59
2022-09-20T00:16:14.452Z,8.57
2022-09-20T00:18:41.956Z,8.58
2022-09-20T00:21:16.495Z,8.56
2022-09-20T00:23:43.119Z,8.57
2022-09-20T00:26:09.723Z,8.56
2022-09-20T00:28:36.333Z,8.59
2022-09-20T00:31:03.021Z,8.58
2022-09-20T00:33:49.610Z,8.62
2022-09-20T00:36:16.723Z,8.48
2022-09-20T00:38:43.284Z,8.57
2022-09-20T00:41:10.226Z,8.57
2022-09-20T00:43:42.796Z,8.55
2022-09-20T00:46:37.992Z,8.58
2022-09-20T00:49:27.597Z,8.49
2022-09-20T00:52:00.904Z,8.42
2022-09-20T00:54:30.383Z,8.41
2022-09-20T00:56:57.941Z,8.46
2022-09-20T00:59:30.481Z,8.49
2022-09-20T01:02:05.627Z,8.53
2022-09-20T01:04:35.583Z,8.54
2022-09-20T01:07:05.695Z,8.53
2022-09-20T01:09:32.284Z,8.57
2022-09-20T01:12:04.258Z,8.50
2022-09-20T01:14:31.025Z,8.63
2022-09-20T01:17:02.672Z,8.42
2022-09-20T01:19:47.345Z,8.44
2022-09-20T01:22:55.895Z,8.52
2022-09-20T01:25:54.645Z,8.40
2022-09-20T01:28:21.705Z,8.30
2022-09-20T01:31:25.855Z,8.18
2022-09-20T01:33:58.385Z,8.10
2022-09-20T01:36:35.142Z,8.09
2022-09-20T01:39:15.247Z,8.01
2022-09-20T01:41:50.506Z,7.93
2022-09-20T01:44:30.147Z,7.82
2022-09-20T01:47:09.655Z,7.81
2022-09-20T01:50:04.034Z,7.74
2022-09-20T01:53:23.362Z,7.67
2022-09-20T01:56:11.510Z,7.60
2022-09-20T01:59:22.582Z,7.51
2022-09-20T02:02:11.406Z,7.42
2022-09-20T02:05:19.652Z,7.51
2022-09-20T02:08:01.710Z,7.48
2022-09-20T02:10:47.449Z,7.48
2022-09-20T02:13:47.439Z,7.43
2022-09-20T02:16:17.091Z,7.49
2022-09-20T02:19:07.959Z,7.39
2022-09-20T02:21:49.615Z,7.33
2022-09-20T02:24:53.010Z,7.34
2022-09-20T02:27:50.551Z,7.30
2022-09-20T02:30:44.877Z,7.27
2022-09-20T02:33:23.803Z,7.17
2022-09-20T02:36:14.906Z,7.15
2022-09-20T02:38:41.413Z,7.12
2022-09-20T02:41:10.749Z,7.10
2022-09-20T02:43:46.416Z,7.09
2022-09-20T02:46:39.039Z,7.12
2022-09-20T02:49:28.715Z,7.01
2022-09-20T02:52:01.029Z,6.99
2022-09-20T02:54:39.633Z,7.01
2022-09-20T02:57:15.912Z,6.88
2022-09-20T02:59:49.589Z,6.90
2022-09-20T03:02:29.106Z,6.95
2022-09-20T03:05:01.703Z,6.99
2022-09-20T03:08:02.910Z,6.93
2022-09-20T03:10:58.934Z,7.06
2022-09-20T03:13:31.583Z,7.02
2022-09-20T03:16:09.612Z,6.84
2022-09-20T03:19:07.817Z,6.94
2022-09-20T03:21:59.943Z,6.96
2022-09-20T03:25:04.915Z,6.95
2022-09-20T03:27:46.066Z,6.90
2022-09-20T03:30:34.622Z,6.95
2022-09-20T03:33:10.041Z,6.96
2022-09-20T03:36:08.810Z,6.93
2022-09-20T03:39:11.210Z,7.00
2022-09-20T03:42:07.288Z,7.00
2022-09-20T03:45:11.273Z,6.96
2022-09-20T03:47:58.323Z,6.90
2022-09-20T03:50:44.571Z,6.91
2022-09-20T03:53:48.600Z,6.85
2022-09-20T03:56:15.151Z,6.85
2022-09-20T03:59:09.028Z,6.86
2022-09-20T04:01:51.235Z,6.86
2022-09-20T04:04:34.435Z,6.92
2022-09-20T04:07:19.848Z,6.90
2022-09-20T04:10:25.791Z,6.90
2022-09-20T04:12:58.069Z,6.87
2022-09-20T04:15:32.518Z,6.83
2022-09-20T04:18:28.939Z,6.74
2022-09-20T04:21:32.001Z,6.79
2022-09-20T04:24:17.485Z,6.79
2022-09-20T04:26:51.999Z,6.87
2022-09-20T04:29:33.738Z,6.76
2022-09-20T04:32:23.073Z,6.74
2022-09-20T04:35:53.937Z,6.74
2022-09-20T04:38:21.498Z,6.82
2022-09-20T04:41:00.162Z,6.82
2022-09-20T04:44:12.030Z,6.73
2022-09-20T04:47:36.315Z,6.83
2022-09-20T04:50:07.699Z,6.79
2022-09-20T04:52:46.929Z,6.93
2022-09-20T04:55:28.948Z,6.92
2022-09-20T04:58:27.208Z,7.08
2022-09-20T05:01:19.690Z,7.00
2022-09-20T05:03:49.871Z,7.09
2022-09-20T05:07:01.346Z,7.19
2022-09-20T05:09:48.963Z,7.48
2022-09-20T05:12:34.537Z,8.31
2022-09-20T05:15:04.059Z,9.33
2022-09-20T05:17:37.220Z,9.80
2022-09-20T05:20:14.380Z,9.98
2022-09-20T05:22:52.995Z,10.49
2022-09-20T05:25:22.517Z,10.79
2022-09-20T05:28:34.867Z,10.47
2022-09-20T05:31:06.274Z,10.43
2022-09-20T05:33:45.114Z,10.65
2022-09-20T05:36:23.557Z,10.25
2022-09-20T05:39:03.524Z,10.27
2022-09-20T05:41:47.412Z,10.48
2022-09-20T05:44:19.865Z,10.76
2022-09-20T05:47:05.260Z,10.75
2022-09-20T05:49:44.088Z,10.86
2022-09-20T05:52:44.603Z,10.81
2022-09-20T05:55:32.370Z,10.79
2022-09-20T05:58:30.282Z,10.17
2022-09-20T06:01:23.367Z,10.39
2022-09-20T06:03:57.024Z,10.43
2022-09-20T06:06:38.098Z,10.31
2022-09-20T06:09:13.391Z,10.26
2022-09-20T06:12:11.470Z,10.63
2022-09-20T06:15:00.140Z,10.95
2022-09-20T06:17:35.981Z,10.97
2022-09-20T06:20:21.051Z,11.01
2022-09-20T06:22:51.535Z,10.88
2022-09-20T06:25:31.293Z,10.95
2022-09-20T06:28:30.549Z,10.67
2022-09-20T06:30:57.697Z,10.59
2022-09-20T06:33:26.561Z,10.82
2022-09-20T06:36:23.050Z,10.62
2022-09-20T06:39:39.354Z,11.10
2022-09-20T06:42:06.640Z,11.24
2022-09-20T06:44:42.127Z,11.72
2022-09-20T06:47:14.521Z,11.61
2022-09-20T06:49:42.464Z,11.67
2022-09-20T06:52:14.564Z,11.51
2022-09-20T06:54:47.110Z,11.82
2022-09-20T06:57:20.405Z,11.93
2022-09-20T06:59:46.957Z,12.12
2022-09-20T07:02:13.662Z,12.30
2022-09-20T07:04:40.247Z,12.48
2022-09-20T07:07:09.733Z,12.68
2022-09-20T07:09:36.420Z,12.19
2022-09-20T07:12:03.135Z,12.41
2022-09-20T07:14:32.673Z,12.38
2022-09-20T07:16:59.347Z,12.48
2022-09-20T07:19:25.894Z,12.46
2022-09-20T07:21:52.540Z,12.16
2022-09-20T07:24:20.142Z,12.59
2022-09-20T07:27:00.618Z,12.46
2022-09-20T07:29:28.787Z,12.51
2022-09-20T07:31:56.752Z,12.80
2022-09-20T07:34:24.885Z,12.92
2022-09-20T07:36:52.326Z,13.38
2022-09-20T07:39:19.001Z,14.06
2022-09-20T07:41:48.595Z,13.88
2022-09-20T07:44:22.297Z,13.63
2022-09-20T07:46:53.918Z,13.31
2022-09-20T07:49:21.886Z,13.19
2022-09-20T07:51:50.098Z,13.16
2022-09-20T07:54:18.172Z,13.24
2022-09-20T07:56:47.061Z,13.65
2022-09-20T07:59:14.487Z,13.71
2022-09-20T08:01:42.320Z,13.68
2022-09-20T08:04:10.120Z,13.77
2022-09-20T08:06:40.953Z,13.78
2022-09-20T08:09:11.191Z,13.65
2022-09-20T08:11:39.590Z,13.37
2022-09-20T08:14:09.065Z,13.49
2022-09-20T08:16:41.176Z,13.44
2022-09-20T08:19:08.151Z,13.41
2022-09-20T08:21:35.957Z,13.47
2022-09-20T08:24:03.975Z,13.76
2022-09-20T08:26:31.764Z,13.65
2022-09-20T08:29:00.304Z,13.86
2022-09-20T08:31:30.757Z,13.84
2022-09-20T08:33:59.173Z,14.08
2022-09-20T08:36:26.305Z,14.29
2022-09-20T08:41:48.279Z,13.51
2022-09-20T08:44:45.032Z,13.56
2022-09-20T08:47:27.405Z,13.15
2022-09-20T08:49:57.275Z,13.18
2022-09-20T08:52:36.909Z,13.19
2022-09-20T08:55:16.731Z,13.54
2022-09-20T08:57:44.830Z,13.56
2022-09-20T09:00:18.329Z,13.54
2022-09-20T09:02:45.335Z,14.39
2022-09-20T09:05:32.698Z,15.19
2022-09-20T09:08:04.592Z,15.49
2022-09-20T09:10:42.580Z,15.46
2022-09-20T09:13:19.535Z,15.25
2022-09-20T09:15:53.527Z,14.76
2022-09-20T09:18:20.068Z,14.60
2022-09-20T09:20:47.154Z,14.69
2022-09-20T09:23:27.109Z,14.43
2022-09-20T09:25:55.288Z,14.40
2022-09-20T09:28:29.388Z,14.42
2022-09-20T09:31:12.967Z,14.78
2022-09-20T09:33:47.061Z,14.55
2022-09-20T09:36:16.492Z,14.72
2022-09-20T09:38:45.578Z,14.68
2022-09-20T09:41:17.995Z,14.32
2022-09-20T09:43:59.338Z,14.75
2022-09-20T09:46:31.126Z,15.55
2022-09-20T09:49:15.482Z,15.28
2022-09-20T09:52:02.160Z,14.81
2022-09-20T09:54:31.491Z,14.37
2022-09-20T09:57:17.441Z,14.08
2022-09-20T10:00:05.907Z,14.26
2022-09-20T10:02:49.488Z,14.35
2022-09-20T10:05:27.773Z,14.18
2022-09-20T10:08:02.196Z,14.80
2022-09-20T10:10:51.102Z,15.37
2022-09-20T10:13:41.194Z,15.43
2022-09-20T10:16:14.759Z,14.89
2022-09-20T10:18:45.651Z,15.28
2022-09-20T10:21:25.214Z,15.46
2022-09-20T10:24:13.476Z,15.66
2022-09-20T10:26:44.105Z,15.50
2022-09-20T10:29:28.830Z,15.04
2022-09-20T10:32:19.316Z,15.37
2022-09-20T10:35:08.318Z,15.26
2022-09-20T10:37:49.371Z,14.79
2022-09-20T10:40:46.950Z,15.20
2022-09-20T10:43:26.273Z,15.28
2022-09-20T10:46:33.305Z,15.47
2022-09-20T10:49:28.927Z,15.67
2022-09-20T10:52:05.175Z,15.09
2022-09-20T10:54:53.090Z,14.37
2022-09-20T10:57:35.337Z,13.77
2022-09-20T11:00:22.392Z,13.91
2022-09-20T11:03:15.900Z,14.32
2022-09-20T11:06:22.153Z,14.54
2022-09-20T11:08:55.816Z,14.94
2022-09-20T11:11:42.515Z,14.85
2022-09-20T11:14:35.491Z,15.22
2022-09-20T11:17:09.529Z,15.39
2022-09-20T11:20:17.697Z,15.30
2022-09-20T11:23:00.263Z,15.03
2022-09-20T11:25:44.957Z,15.43
2022-09-20T11:28:21.166Z,15.47
2022-09-20T11:31:15.141Z,15.54
2022-09-20T11:33:52.186Z,15.52
2022-09-20T11:36:30.130Z,15.52
2022-09-20T11:39:21.768Z,15.37
2022-09-20T11:41:52.176Z,15.24
2022-09-20T11:44:19.958Z,15.56
2022-09-20T11:47:02.921Z,15.65
2022-09-20T11:49:50.400Z,15.68
2022-09-20T11:52:47.397Z,15.30
2022-09-20T11:55:34.055Z,15.05
2022-09-20T11:58:23.455Z,14.84
2022-09-20T12:00:54.468Z,14.69
2022-09-20T12:03:36.258Z,15.53
2022-09-20T12:06:07.315Z,16.19
2022-09-20T12:08:40.796Z,16.49
2022-09-20T12:11:10.736Z,16.72
2022-09-20T12:13:40.024Z,16.42
2022-09-20T12:16:35.599Z,16.79
2022-09-20T12:19:08.480Z,16.80
2022-09-20T12:21:59.921Z,16.16
2022-09-20T12:24:45.126Z,16.44
2022-09-20T12:27:27.571Z,16.89
2022-09-20T12:30:17.503Z,16.55
2022-09-20T12:33:02.319Z,16.65
2022-09-20T12:35:44.449Z,16.52
2022-09-20T12:38:20.210Z,16.54
2022-09-20T12:41:05.557Z,16.11
2022-09-20T12:43:36.980Z,16.12
2022-09-20T12:46:09.907Z,15.47
2022-09-20T12:48:38.792Z,15.61
2022-09-20T12:51:51.724Z,15.51
2022-09-20T12:54:18.768Z,15.39
2022-09-20T12:56:46.741Z,15.83
2022-09-20T12:59:31.133Z,16.07
2022-09-20T13:02:36.251Z,16.11
2022-09-20T13:05:03.042Z,15.77
2022-09-20T13:07:43.327Z,15.72
2022-09-20T13:51:28.167Z,15.75
2022-09-20T13:54:17.730Z,15.83
2022-09-20T13:56:46.555Z,15.90
2022-09-20T13:59:19.367Z,15.71
2022-09-20T14:01:55.502Z,15.86
2022-09-20T14:04:24.709Z,15.86
2022-09-20T14:06:53.695Z,15.82
2022-09-20T14:09:39.432Z,16.03
2022-09-20T14:12:07.229Z,16.13
2022-09-20T14:14:34.947Z,16.23
2022-09-20T14:17:06.277Z,16.05
2022-09-20T14:19:40.801Z,16.11
2022-09-20T14:22:08.469Z,15.96
2022-09-20T14:24:37.366Z,15.86
2022-09-20T14:27:21.424Z,15.96
2022-09-20T14:29:50.531Z,15.84
2022-09-20T14:32:17.091Z,15.75
2022-09-20T14:34:47.255Z,15.56
2022-09-20T14:37:22.408Z,15.63
2022-09-20T14:39:53.844Z,15.52
2022-09-20T14:42:44.026Z,15.55
2022-09-20T14:45:25.967Z,15.61
2022-09-20T14:47:57.110Z,15.70
2022-09-20T14:50:52.990Z,15.55
2022-09-20T14:53:23.790Z,15.31
2022-09-20T14:56:04.588Z,15.30
2022-09-20T14:58:31.579Z,15.36
2022-09-20T15:01:23.648Z,15.45
2022-09-20T15:03:51.132Z,15.44
2022-09-20T15:06:17.806Z,15.42
2022-09-20T15:08:46.682Z,15.51
2022-09-20T15:11:17.999Z,15.59
2022-09-20T15:13:45.087Z,15.69
2022-09-20T15:16:17.623Z,15.61
2022-09-20T15:18:44.835Z,15.46
2022-09-20T15:21:11.547Z,15.17
2022-09-20T15:23:38.930Z,15.15
2022-09-20T15:26:06.474Z,15.00
2022-09-20T15:28:36.485Z,14.83
2022-09-20T15:31:03.106Z,14.64
2022-09-20T15:33:32.058Z,14.64
2022-09-20T15:35:59.396Z,14.62
2022-09-20T15:38:27.145Z,14.60
2022-09-20T15:40:54.455Z,14.55
2022-09-20T15:43:25.829Z,14.55
2022-09-20T15:46:00.381Z,14.46
2022-09-20T15:48:30.007Z,14.19
2022-09-20T15:51:08.623Z,14.14
2022-09-20T15:53:38.372Z,14.06
2022-09-20T15:56:15.619Z,13.86
2022-09-20T15:58:48.815Z,13.75
2022-09-20T16:01:19.535Z,13.66
2022-09-20T16:03:46.987Z,13.82
2022-09-20T16:06:14.124Z,13.72
2022-09-20T16:08:42.585Z,13.61
2022-09-20T16:11:13.141Z,13.36
2022-09-20T16:13:40.162Z,13.10
2022-09-20T16:16:09.234Z,12.91
2022-09-20T16:18:55.437Z,12.88
2022-09-20T16:21:22.338Z,12.76
2022-09-20T16:23:54.738Z,12.54
2022-09-20T16:26:23.905Z,12.42
2022-09-20T16:28:51.039Z,12.36
2022-09-20T16:31:34.941Z,12.21
2022-09-20T16:34:08.295Z,11.98
2022-09-20T16:36:34.939Z,11.81
2022-09-20T16:39:01.568Z,11.67
2022-09-20T16:41:28.667Z,11.59
2022-09-20T16:43:55.981Z,11.54
2022-09-20T16:46:25.288Z,11.46
2022-09-20T16:48:53.764Z,11.48
2022-09-20T16:51:26.151Z,11.50
2022-09-20T16:53:56.217Z,11.45
2022-09-20T16:56:25.679Z,11.43
2022-09-20T16:58:52.971Z,11.39
2022-09-20T17:01:20.323Z,11.35
2022-09-20T17:03:47.737Z,11.25
2022-09-20T17:06:16.275Z,11.20
2022-09-20T17:08:46.799Z,11.20
2022-09-20T17:11:15.419Z,11.13
2022-09-20T17:13:43.695Z,11.15
2022-09-20T17:16:12.847Z,11.03
2022-09-20T17:18:42.835Z,11.02
2022-09-20T17:21:14.839Z,11.00
2022-09-20T17:23:50.798Z,10.91
2022-09-20T17:26:43.624Z,10.90
2022-09-20T17:29:13.929Z,10.87
2022-09-20T17:31:44.017Z,10.87
2022-09-20T17:34:12.233Z,10.83
2022-09-20T17:36:41.890Z,10.76
2022-09-20T17:39:11.042Z,10.79
2022-09-20T17:41:39.436Z,10.82
2022-09-20T17:44:10.119Z,10.78
2022-09-20T17:46:39.330Z,10.72
2022-09-20T17:49:11.638Z,10.72
2022-09-20T17:51:38.129Z,10.66
2022-09-20T17:54:05.806Z,10.58
2022-09-20T17:56:33.436Z,10.52
2022-09-20T17:59:02.241Z,10.54
2022-09-20T18:01:30.544Z,10.14
2022-09-20T18:03:58.827Z,10.62
2022-09-20T18:06:29.695Z,10.58
2022-09-20T18:09:02.526Z,10.51
2022-09-20T18:11:34.883Z,10.50
2022-09-20T18:14:03.018Z,10.53
2022-09-20T18:16:31.034Z,10.50
2022-09-20T18:18:59.817Z,10.54
2022-09-20T18:21:28.988Z,10.66
2022-09-20T18:23:57.142Z,10.60
2022-09-20T18:26:26.232Z,10.62
2022-09-20T18:29:01.974Z,10.62
2022-09-20T18:31:33.428Z,10.62
2022-09-20T18:34:00.898Z,10.61
2022-09-20T18:36:29.628Z,10.67
2022-09-20T18:38:57.849Z,10.70
2022-09-20T18:41:26.672Z,10.66
2022-09-20T18:43:55.387Z,10.65
2022-09-20T18:46:27.049Z,10.55
2022-09-20T18:48:58.423Z,10.58
2022-09-20T18:51:28.683Z,10.45
2022-09-20T18:53:56.623Z,10.32
2022-09-20T18:56:26.116Z,10.42
2022-09-20T18:58:55.690Z,10.43
2022-09-20T19:01:25.174Z,10.39
2022-09-20T19:04:16.824Z,10.39
2022-09-20T19:06:53.377Z,10.41
2022-09-20T19:09:30.078Z,10.44
2022-09-20T19:12:04.097Z,10.37
2022-09-20T19:14:36.747Z,10.23
2022-09-20T19:17:04.507Z,10.00
2022-09-20T19:20:03.854Z,9.83
2022-09-20T19:23:01.407Z,9.69
2022-09-20T19:25:40.945Z,9.44
2022-09-20T19:28:11.267Z,9.35
2022-09-20T19:30:39.794Z,9.27
2022-09-20T19:33:16.078Z,9.19
2022-09-20T19:35:49.607Z,9.25
2022-09-20T19:38:45.223Z,9.33
2022-09-20T19:41:39.333Z,9.22
2022-09-20T19:44:19.162Z,9.26
2022-09-20T19:47:01.986Z,9.26
2022-09-20T19:49:40.798Z,8.96
2022-09-20T19:52:12.163Z,9.18
2022-09-20T19:54:42.179Z,9.14
2022-09-20T19:57:37.359Z,9.19
2022-09-20T20:00:09.202Z,9.10
2022-09-20T20:02:36.444Z,9.03
2022-09-20T20:05:03.772Z,8.99
2022-09-20T20:07:41.464Z,8.96
2022-09-20T20:10:19.931Z,8.86
2022-09-20T20:12:55.677Z,8.89
2022-09-20T20:15:40.476Z,8.81
2022-09-20T20:18:21.950Z,8.76
2022-09-20T20:20:50.592Z,8.72
2022-09-20T20:23:44.697Z,8.58
2022-09-20T20:26:21.195Z,8.49
2022-09-20T20:28:48.021Z,8.42
2022-09-20T20:31:15.070Z,8.45
2022-09-20T20:33:41.802Z,8.37
2022-09-20T20:36:12.053Z,8.29
2022-09-20T20:38:40.419Z,8.37
2022-09-20T20:41:12.337Z,8.10
2022-09-20T20:43:41.424Z,8.31
2022-09-20T20:46:14.340Z,8.37
2022-09-20T20:48:41.746Z,8.41
2022-09-20T20:51:11.109Z,8.56
2022-09-20T20:53:46.512Z,8.57
2022-09-20T20:56:18.680Z,8.62
2022-09-20T20:58:46.556Z,8.63
2022-09-20T21:01:14.897Z,8.53
2022-09-20T21:03:44.272Z,8.52
2022-09-20T21:06:10.947Z,8.56
2022-09-20T21:08:48.294Z,8.39
2022-09-20T21:11:27.457Z,8.23
2022-09-20T21:13:55.695Z,8.18
2022-09-20T21:16:24.854Z,8.26
2022-09-20T21:18:52.138Z,8.26
2022-09-20T21:21:20.532Z,8.25
2022-09-20T21:23:50.830Z,8.30
2022-09-20T21:26:18.441Z,8.32
2022-09-20T21:28:50.929Z,8.44
2022-09-20T21:31:19.078Z,8.48
2022-09-20T21:33:45.956Z,8.51
2022-09-20T21:36:15.564Z,8.46
2022-09-20T21:38:45.649Z,8.23
2022-09-20T21:41:15.230Z,8.16
2022-09-20T21:43:43.537Z,8.14
2022-09-20T21:46:14.380Z,8.17
2022-09-20T21:48:41.278Z,8.20
2022-09-20T21:51:10.819Z,8.25
2022-09-20T21:53:39.206Z,8.31
2022-09-20T21:56:11.639Z,8.39
2022-09-20T21:58:42.048Z,8.49
2022-09-20T22:01:14.184Z,8.51
2022-09-20T22:03:42.247Z,8.59
2022-09-20T22:06:17.266Z,8.59
2022-09-20T22:08:53.067Z,8.58
2022-09-20T22:11:21.947Z,8.59
2022-09-20T22:13:50.615Z,8.49
2022-09-20T22:16:31.547Z,8.40
2022-09-20T22:19:01.918Z,8.44
2022-09-20T22:21:37.425Z,8.40
2022-09-20T22:24:06.761Z,8.47
2022-09-20T22:26:38.836Z,8.47
2022-09-20T22:29:06.580Z,8.36
2022-09-20T22:31:35.476Z,8.35
2022-09-20T22:34:04.783Z,8.30
2022-09-20T22:36:39.294Z,8.26
2022-09-20T22:39:08.066Z,8.26
2022-09-20T22:41:35.814Z,8.13
2022-09-20T22:44:03.010Z,8.09
2022-09-20T22:46:30.897Z,8.09
2022-09-20T22:48:57.811Z,8.01
2022-09-20T22:51:30.847Z,8.03
2022-09-20T22:53:57.630Z,8.01
2022-09-20T22:56:29.920Z,7.99
2022-09-20T22:58:57.285Z,7.91
2022-09-20T23:01:27.341Z,7.81
2022-09-20T23:03:59.350Z,7.81
2022-09-20T23:06:29.436Z,7.80
2022-09-20T23:08:59.229Z,7.72
2022-09-20T23:11:26.417Z,7.78
2022-09-20T23:14:00.795Z,7.82
2022-09-20T23:16:29.623Z,7.81
2022-09-20T23:18:58.394Z,7.84
2022-09-20T23:21:25.467Z,7.75
2022-09-20T23:23:57.373Z,7.80
2022-09-20T23:26:25.471Z,7.80
2022-09-20T23:28:57.116Z,7.74
2022-09-20T23:31:24.608Z,7.74
2022-09-20T23:33:54.229Z,7.77
2022-09-20T23:36:21.976Z,7.75
2022-09-20T23:38:49.193Z,7.82
2022-09-20T23:41:18.722Z,7.84
2022-09-20T23:43:45.632Z,7.83
2022-09-20T23:46:14.037Z,7.94
2022-09-20T23:48:44.321Z,7.91
2022-09-20T23:51:13.860Z,7.88
2022-09-20T23:53:41.344Z,7.89
2022-09-20T23:56:09.697Z,7.96
2022-09-20T23:58:37.430Z,8.01
